sensor_id;sensor_type;location;lat;lon;timestamp;temperature;humidity
74420;DHT22;62855;50.718;-2.460;2023-05-19T00:00:08;52.70;61.00
74420;DHT22;62855;50.718;-2.460;2023-05-19T00:03:06;52.52;61.00
74420;DHT22;62855;50.718;-2.460;2023-05-19T00:06:07;52.52;61.00
74420;DHT22;62855;50.718;-2.460;2023-05-19T00:09:08;52.52;61.00
74420;DHT22;62855;50.718;-2.460;2023-05-19T00:12:08;52.52;61.00
74420;DHT22;62855;50.718;-2.460;2023-05-19T00:15:07;52.52;61.00
74420;DHT22;62855;50.718;-2.460;2023-05-19T00:18:06;52.52;61.00
74420;DHT22;62855;50.718;-2.460;2023-05-19T00:21:06;52.52;62.00
74420;DHT22;62855;50.718;-2.460;2023-05-19T00:24:06;52.52;62.00
74420;DHT22;62855;50.718;-2.460;2023-05-19T00:27:06;52.52;62.00
74420;DHT22;62855;50.718;-2.460;2023-05-19T00:30:07;52.52;62.00
74420;DHT22;62855;50.718;-2.460;2023-05-19T00:33:06;52.52;62.00
74420;DHT22;62855;50.718;-2.460;2023-05-19T00:36:07;52.52;63.00
74420;DHT22;62855;50.718;-2.460;2023-05-19T00:39:06;52.34;63.00
74420;DHT22;62855;50.718;-2.460;2023-05-19T00:42:06;52.34;63.00
74420;DHT22;62855;50.718;-2.460;2023-05-19T00:45:07;52.34;63.00
74420;DHT22;62855;50.718;-2.460;2023-05-19T00:49:06;52.34;64.00
74420;DHT22;62855;50.718;-2.460;2023-05-19T00:52:06;52.34;64.00
74420;DHT22;62855;50.718;-2.460;2023-05-19T00:55:07;52.16;65.00
74420;DHT22;62855;50.718;-2.460;2023-05-19T00:58:08;52.16;65.00
74420;DHT22;62855;50.718;-2.460;2023-05-19T01:01:06;52.16;65.00
74420;DHT22;62855;50.718;-2.460;2023-05-19T01:04:06;52.16;65.00
74420;DHT22;62855;50.718;-2.460;2023-05-19T01:07:06;52.16;66.00
74420;DHT22;62855;50.718;-2.460;2023-05-19T01:10:06;52.16;66.00
74420;DHT22;62855;50.718;-2.460;2023-05-19T01:13:06;51.98;66.00
74420;DHT22;62855;50.718;-2.460;2023-05-19T01:16:10;51.98;67.00
74420;DHT22;62855;50.718;-2.460;2023-05-19T01:19:13;51.98;67.00
74420;DHT22;62855;50.718;-2.460;2023-05-19T01:22:17;51.98;67.00
74420;DHT22;62855;50.718;-2.460;2023-05-19T01:25:23;51.98;67.00
74420;DHT22;62855;50.718;-2.460;2023-05-19T01:28:28;51.98;67.00
74420;DHT22;62855;50.718;-2.460;2023-05-19T01:31:08;51.80;68.00
74420;DHT22;62855;50.718;-2.460;2023-05-19T01:34:06;51.80;68.00
74420;DHT22;62855;50.718;-2.460;2023-05-19T01:37:06;51.80;68.00
74420;DHT22;62855;50.718;-2.460;2023-05-19T01:40:07;51.80;68.00
74420;DHT22;62855;50.718;-2.460;2023-05-19T01:43:18;51.80;68.00
74420;DHT22;62855;50.718;-2.460;2023-05-19T01:46:07;51.80;68.00
74420;DHT22;62855;50.718;-2.460;2023-05-19T01:49:06;51.80;68.00
74420;DHT22;62855;50.718;-2.460;2023-05-19T01:52:06;51.80;68.00
74420;DHT22;62855;50.718;-2.460;2023-05-19T01:55:07;51.80;69.00
74420;DHT22;62855;50.718;-2.460;2023-05-19T01:58:12;51.80;69.00
74420;DHT22;62855;50.718;-2.460;2023-05-19T02:01:12;51.80;69.00
74420;DHT22;62855;50.718;-2.460;2023-05-19T02:04:14;51.80;69.00
74420;DHT22;62855;50.718;-2.460;2023-05-19T02:07:12;51.80;68.00
74420;DHT22;62855;50.718;-2.460;2023-05-19T02:13:09;51.80;68.00
74420;DHT22;62855;50.718;-2.460;2023-05-19T02:16:07;51.80;69.00
74420;DHT22;62855;50.718;-2.460;2023-05-19T02:19:06;51.80;69.00
74420;DHT22;62855;50.718;-2.460;2023-05-19T02:22:06;51.80;69.00
74420;DHT22;62855;50.718;-2.460;2023-05-19T02:25:07;51.80;69.00
74420;DHT22;62855;50.718;-2.460;2023-05-19T02:27:06;51.80;69.00
74420;DHT22;62855;50.718;-2.460;2023-05-19T02:30:08;51.80;69.00
74420;DHT22;62855;50.718;-2.460;2023-05-19T02:33:06;51.80;70.00
74420;DHT22;62855;50.718;-2.460;2023-05-19T02:36:06;51.80;70.00
74420;DHT22;62855;50.718;-2.460;2023-05-19T02:39:06;51.62;70.00
74420;DHT22;62855;50.718;-2.460;2023-05-19T02:42:07;51.62;70.00
74420;DHT22;62855;50.718;-2.460;2023-05-19T02:44:06;51.62;70.00
74420;DHT22;62855;50.718;-2.460;2023-05-19T02:50:07;51.44;70.00
74420;DHT22;62855;50.718;-2.460;2023-05-19T02:53:06;51.44;70.00
74420;DHT22;62855;50.718;-2.460;2023-05-19T02:56:06;51.44;71.00
74420;DHT22;62855;50.718;-2.460;2023-05-19T02:59:06;51.44;71.00
74420;DHT22;62855;50.718;-2.460;2023-05-19T03:03:06;51.26;71.00
74420;DHT22;62855;50.718;-2.460;2023-05-19T03:06:06;51.26;71.00
74420;DHT22;62855;50.718;-2.460;2023-05-19T03:09:06;51.26;71.00
74420;DHT22;62855;50.718;-2.460;2023-05-19T03:12:06;51.08;72.00
74420;DHT22;62855;50.718;-2.460;2023-05-19T03:15:07;51.08;72.00
74420;DHT22;62855;50.718;-2.460;2023-05-19T03:18:06;51.08;72.00
74420;DHT22;62855;50.718;-2.460;2023-05-19T03:21:06;51.08;72.00
74420;DHT22;62855;50.718;-2.460;2023-05-19T03:24:06;51.08;72.00
74420;DHT22;62855;50.718;-2.460;2023-05-19T03:26:06;51.08;72.00
74420;DHT22;62855;50.718;-2.460;2023-05-19T03:29:06;51.08;72.00
74420;DHT22;62855;50.718;-2.460;2023-05-19T03:32:06;51.08;72.00
74420;DHT22;62855;50.718;-2.460;2023-05-19T03:35:16;51.08;72.00
74420;DHT22;62855;50.718;-2.460;2023-05-19T03:41:06;51.26;73.00
74420;DHT22;62855;50.718;-2.460;2023-05-19T03:48:06;51.08;73.00
74420;DHT22;62855;50.718;-2.460;2023-05-19T03:51:06;51.08;73.00
74420;DHT22;62855;50.718;-2.460;2023-05-19T03:56:07;51.08;73.00
74420;DHT22;62855;50.718;-2.460;2023-05-19T03:58:06;50.90;73.00
74420;DHT22;62855;50.718;-2.460;2023-05-19T04:01:06;51.08;73.00
74420;DHT22;62855;50.718;-2.460;2023-05-19T04:04:06;51.08;73.00
74420;DHT22;62855;50.718;-2.460;2023-05-19T04:07:06;51.08;74.00
74420;DHT22;62855;50.718;-2.460;2023-05-19T04:13:06;51.08;74.00
74420;DHT22;62855;50.718;-2.460;2023-05-19T04:16:06;51.08;74.00
74420;DHT22;62855;50.718;-2.460;2023-05-19T04:18:06;50.90;74.00
74420;DHT22;62855;50.718;-2.460;2023-05-19T04:21:06;50.90;74.00
74420;DHT22;62855;50.718;-2.460;2023-05-19T04:27:06;50.90;75.00
74420;DHT22;62855;50.718;-2.460;2023-05-19T04:30:07;50.90;75.00
74420;DHT22;62855;50.718;-2.460;2023-05-19T04:33:06;50.90;75.00
74420;DHT22;62855;50.718;-2.460;2023-05-19T04:36:07;50.72;83.00
74420;DHT22;62855;50.718;-2.460;2023-05-19T04:39:06;50.72;83.00
74420;DHT22;62855;50.718;-2.460;2023-05-19T04:42:06;50.72;83.00
74420;DHT22;62855;50.718;-2.460;2023-05-19T04:45:07;50.72;83.00
74420;DHT22;62855;50.718;-2.460;2023-05-19T04:48:06;50.54;83.00
74420;DHT22;62855;50.718;-2.460;2023-05-19T04:51:06;50.72;83.00
74420;DHT22;62855;50.718;-2.460;2023-05-19T04:54:06;50.72;84.00
74420;DHT22;62855;50.718;-2.460;2023-05-19T04:57:06;50.72;84.00
74420;DHT22;62855;50.718;-2.460;2023-05-19T04:59:06;50.72;84.00
74420;DHT22;62855;50.718;-2.460;2023-05-19T05:02:06;50.90;84.00
74420;DHT22;62855;50.718;-2.460;2023-05-19T05:08:06;50.90;84.00
74420;DHT22;62855;50.718;-2.460;2023-05-19T05:11:07;51.08;84.00
74420;DHT22;62855;50.718;-2.460;2023-05-19T05:14:07;51.08;84.00
74420;DHT22;62855;50.718;-2.460;2023-05-19T05:17:07;51.08;84.00
74420;DHT22;62855;50.718;-2.460;2023-05-19T05:20:07;51.26;85.00
74420;DHT22;62855;50.718;-2.460;2023-05-19T05:23:06;51.26;85.00
74420;DHT22;62855;50.718;-2.460;2023-05-19T05:25:08;51.44;85.00
74420;DHT22;62855;50.718;-2.460;2023-05-19T05:27:06;51.44;85.00
74420;DHT22;62855;50.718;-2.460;2023-05-19T05:30:07;51.62;85.00
74420;DHT22;62855;50.718;-2.460;2023-05-19T05:36:07;51.62;85.00
74420;DHT22;62855;50.718;-2.460;2023-05-19T05:39:06;51.80;85.00
74420;DHT22;62855;50.718;-2.460;2023-05-19T05:42:06;51.80;85.00
74420;DHT22;62855;50.718;-2.460;2023-05-19T05:45:07;51.80;85.00
74420;DHT22;62855;50.718;-2.460;2023-05-19T05:48:07;51.98;85.00
74420;DHT22;62855;50.718;-2.460;2023-05-19T05:50:08;51.98;85.00
74420;DHT22;62855;50.718;-2.460;2023-05-19T05:53:07;51.98;85.00
74420;DHT22;62855;50.718;-2.460;2023-05-19T05:56:07;52.16;85.00
74420;DHT22;62855;50.718;-2.460;2023-05-19T05:59:06;52.16;85.00
74420;DHT22;62855;50.718;-2.460;2023-05-19T06:05:16;52.34;84.00
74420;DHT22;62855;50.718;-2.460;2023-05-19T06:08:06;52.34;84.00
74420;DHT22;62855;50.718;-2.460;2023-05-19T06:11:06;52.34;84.00
74420;DHT22;62855;50.718;-2.460;2023-05-19T06:18:06;52.70;83.00
74420;DHT22;62855;50.718;-2.460;2023-05-19T06:21:06;52.70;83.00
74420;DHT22;62855;50.718;-2.460;2023-05-19T06:24:06;52.70;83.00
74420;DHT22;62855;50.718;-2.460;2023-05-19T06:27:06;52.70;83.00
74420;DHT22;62855;50.718;-2.460;2023-05-19T06:30:07;52.70;83.00
74420;DHT22;62855;50.718;-2.460;2023-05-19T06:32:08;52.70;82.00
74420;DHT22;62855;50.718;-2.460;2023-05-19T06:35:07;52.88;82.00
74420;DHT22;62855;50.718;-2.460;2023-05-19T06:39:06;52.88;82.00
74420;DHT22;62855;50.718;-2.460;2023-05-19T06:42:06;52.88;82.00
74420;DHT22;62855;50.718;-2.460;2023-05-19T06:50:06;52.88;81.00
74420;DHT22;62855;50.718;-2.460;2023-05-19T06:56:06;53.06;81.00
74420;DHT22;62855;50.718;-2.460;2023-05-19T06:59:06;53.24;81.00
74420;DHT22;62855;50.718;-2.460;2023-05-19T07:02:07;53.24;81.00
74420;DHT22;62855;50.718;-2.460;2023-05-19T07:04:06;53.42;81.00
74420;DHT22;62855;50.718;-2.460;2023-05-19T07:07:06;53.60;78.00
74420;DHT22;62855;50.718;-2.460;2023-05-19T07:13:06;53.78;77.00
74420;DHT22;62855;50.718;-2.460;2023-05-19T07:16:06;53.96;77.00
74420;DHT22;62855;50.718;-2.460;2023-05-19T07:19:06;54.14;76.00
74420;DHT22;62855;50.718;-2.460;2023-05-19T07:21:06;54.32;76.00
74420;DHT22;62855;50.718;-2.460;2023-05-19T07:24:06;54.50;75.00
74420;DHT22;62855;50.718;-2.460;2023-05-19T07:27:06;54.68;75.00
74420;DHT22;62855;50.718;-2.460;2023-05-19T07:30:07;55.04;74.00
74420;DHT22;62855;50.718;-2.460;2023-05-19T07:33:06;55.22;74.00
74420;DHT22;62855;50.718;-2.460;2023-05-19T07:36:06;55.58;73.00
74420;DHT22;62855;50.718;-2.460;2023-05-19T07:39:06;55.94;73.00
74420;DHT22;62855;50.718;-2.460;2023-05-19T07:43:06;56.30;72.00
74420;DHT22;62855;50.718;-2.460;2023-05-19T07:46:06;56.48;72.00
74420;DHT22;62855;50.718;-2.460;2023-05-19T07:49:06;56.84;72.00
74420;DHT22;62855;50.718;-2.460;2023-05-19T07:51:06;57.02;71.00
74420;DHT22;62855;50.718;-2.460;2023-05-19T07:53:06;57.20;71.00
74420;DHT22;62855;50.718;-2.460;2023-05-19T07:56:06;57.56;71.00
74420;DHT22;62855;50.718;-2.460;2023-05-19T07:59:06;57.74;71.00
74420;DHT22;62855;50.718;-2.460;2023-05-19T08:01:06;57.92;71.00
74420;DHT22;62855;50.718;-2.460;2023-05-19T08:04:06;58.28;70.00
74420;DHT22;62855;50.718;-2.460;2023-05-19T08:10:07;59.18;70.00
74420;DHT22;62855;50.718;-2.460;2023-05-19T08:12:06;59.36;70.00
74420;DHT22;62855;50.718;-2.460;2023-05-19T08:15:07;59.90;69.00
74420;DHT22;62855;50.718;-2.460;2023-05-19T08:21:06;61.16;68.00
74420;DHT22;62855;50.718;-2.460;2023-05-19T08:27:06;62.42;65.00
74420;DHT22;62855;50.718;-2.460;2023-05-19T08:30:08;62.78;61.00
74420;DHT22;62855;50.718;-2.460;2023-05-19T08:32:07;63.14;62.00
74420;DHT22;62855;50.718;-2.460;2023-05-19T08:34:06;63.32;61.00
74420;DHT22;62855;50.718;-2.460;2023-05-19T08:37:06;63.50;60.00
74420;DHT22;62855;50.718;-2.460;2023-05-19T08:40:11;63.50;59.00
74420;DHT22;62855;50.718;-2.460;2023-05-19T08:43:07;63.32;60.00
74420;DHT22;62855;50.718;-2.460;2023-05-19T08:45:07;63.32;60.00
74420;DHT22;62855;50.718;-2.460;2023-05-19T08:48:07;63.50;60.00
74420;DHT22;62855;50.718;-2.460;2023-05-19T08:51:12;63.68;60.00
74420;DHT22;62855;50.718;-2.460;2023-05-19T08:53:10;63.68;60.00
74420;DHT22;62855;50.718;-2.460;2023-05-19T08:56:10;63.68;60.00
74420;DHT22;62855;50.718;-2.460;2023-05-19T08:59:06;63.68;60.00
74420;DHT22;62855;50.718;-2.460;2023-05-19T09:02:07;63.86;60.00
74420;DHT22;62855;50.718;-2.460;2023-05-19T09:04:07;64.04;60.00
74420;DHT22;62855;50.718;-2.460;2023-05-19T09:07:06;64.22;60.00
74420;DHT22;62855;50.718;-2.460;2023-05-19T09:10:07;64.22;60.00
74420;DHT22;62855;50.718;-2.460;2023-05-19T09:13:06;64.22;59.00
74420;DHT22;62855;50.718;-2.460;2023-05-19T09:19:12;64.58;54.00
74420;DHT22;62855;50.718;-2.460;2023-05-19T09:22:06;64.58;53.00
74420;DHT22;62855;50.718;-2.460;2023-05-19T09:25:17;64.40;53.00
74420;DHT22;62855;50.718;-2.460;2023-05-19T09:28:07;64.22;53.00
74420;DHT22;62855;50.718;-2.460;2023-05-19T09:31:08;64.22;53.00
74420;DHT22;62855;50.718;-2.460;2023-05-19T09:34:11;64.22;53.00
74420;DHT22;62855;50.718;-2.460;2023-05-19T09:37:06;64.40;54.00
74420;DHT22;62855;50.718;-2.460;2023-05-19T09:40:07;64.40;53.00
74420;DHT22;62855;50.718;-2.460;2023-05-19T09:43:07;64.40;54.00
74420;DHT22;62855;50.718;-2.460;2023-05-19T09:46:07;64.40;54.00
74420;DHT22;62855;50.718;-2.460;2023-05-19T09:49:07;64.58;54.00
74420;DHT22;62855;50.718;-2.460;2023-05-19T09:51:07;64.76;54.00
74420;DHT22;62855;50.718;-2.460;2023-05-19T09:53:06;64.76;54.00
74420;DHT22;62855;50.718;-2.460;2023-05-19T09:55:09;64.94;54.00
74420;DHT22;62855;50.718;-2.460;2023-05-19T09:58:06;65.12;54.00
74420;DHT22;62855;50.718;-2.460;2023-05-19T10:01:07;65.12;54.00
74420;DHT22;62855;50.718;-2.460;2023-05-19T10:04:06;65.12;54.00
74420;DHT22;62855;50.718;-2.460;2023-05-19T10:06:06;65.12;54.00
74420;DHT22;62855;50.718;-2.460;2023-05-19T10:08:07;65.30;54.00
74420;DHT22;62855;50.718;-2.460;2023-05-19T10:11:07;65.30;54.00
74420;DHT22;62855;50.718;-2.460;2023-05-19T10:17:06;65.66;54.00
74420;DHT22;62855;50.718;-2.460;2023-05-19T10:20:08;65.84;53.00
74420;DHT22;62855;50.718;-2.460;2023-05-19T10:23:06;66.02;53.00
74420;DHT22;62855;50.718;-2.460;2023-05-19T10:26:06;66.02;53.00
74420;DHT22;62855;50.718;-2.460;2023-05-19T10:29:07;66.02;53.00
74420;DHT22;62855;50.718;-2.460;2023-05-19T10:31:09;65.66;52.00
74420;DHT22;62855;50.718;-2.460;2023-05-19T10:33:11;65.30;51.00
74420;DHT22;62855;50.718;-2.460;2023-05-19T10:39:10;64.76;53.00
74420;DHT22;62855;50.718;-2.460;2023-05-19T10:41:10;64.76;53.00
74420;DHT22;62855;50.718;-2.460;2023-05-19T10:44:11;64.94;53.00
74420;DHT22;62855;50.718;-2.460;2023-05-19T10:47:06;65.30;53.00
74420;DHT22;62855;50.718;-2.460;2023-05-19T10:50:07;65.30;53.00
74420;DHT22;62855;50.718;-2.460;2023-05-19T10:53:14;65.30;53.00
74420;DHT22;62855;50.718;-2.460;2023-05-19T10:55:07;65.48;54.00
74420;DHT22;62855;50.718;-2.460;2023-05-19T10:58:06;65.66;53.00
74420;DHT22;62855;50.718;-2.460;2023-05-19T11:01:07;65.48;53.00
74420;DHT22;62855;50.718;-2.460;2023-05-19T11:03:12;65.66;53.00
74420;DHT22;62855;50.718;-2.460;2023-05-19T11:06:17;65.84;54.00
74420;DHT22;62855;50.718;-2.460;2023-05-19T11:09:11;66.02;54.00
74420;DHT22;62855;50.718;-2.460;2023-05-19T11:12:07;65.84;52.00
74420;DHT22;62855;50.718;-2.460;2023-05-19T11:15:08;65.66;53.00
74420;DHT22;62855;50.718;-2.460;2023-05-19T11:17:12;65.66;53.00
74420;DHT22;62855;50.718;-2.460;2023-05-19T11:19:07;65.84;54.00
74420;DHT22;62855;50.718;-2.460;2023-05-19T11:22:08;66.20;54.00
74420;DHT22;62855;50.718;-2.460;2023-05-19T11:25:06;66.56;53.00
74420;DHT22;62855;50.718;-2.460;2023-05-19T11:28:06;67.10;53.00
74420;DHT22;62855;50.718;-2.460;2023-05-19T11:30:09;67.64;53.00
74420;DHT22;62855;50.718;-2.460;2023-05-19T11:33:06;68.18;53.00
74420;DHT22;62855;50.718;-2.460;2023-05-19T11:36:16;68.90;52.00
74420;DHT22;62855;50.718;-2.460;2023-05-19T11:39:07;68.90;51.00
74420;DHT22;62855;50.718;-2.460;2023-05-19T11:41:06;68.72;50.00
74420;DHT22;62855;50.718;-2.460;2023-05-19T11:44:09;68.72;51.00
74420;DHT22;62855;50.718;-2.460;2023-05-19T11:46:08;68.72;51.00
74420;DHT22;62855;50.718;-2.460;2023-05-19T11:49:06;69.08;51.00
74420;DHT22;62855;50.718;-2.460;2023-05-19T11:52:06;69.44;51.00
74420;DHT22;62855;50.718;-2.460;2023-05-19T11:54:06;69.44;50.00
74420;DHT22;62855;50.718;-2.460;2023-05-19T11:57:08;69.62;51.00
74420;DHT22;62855;50.718;-2.460;2023-05-19T12:00:07;69.80;51.00
74420;DHT22;62855;50.718;-2.460;2023-05-19T12:03:07;69.98;50.00
74420;DHT22;62855;50.718;-2.460;2023-05-19T12:05:16;69.80;50.00
74420;DHT22;62855;50.718;-2.460;2023-05-19T12:07:06;69.80;50.00
74420;DHT22;62855;50.718;-2.460;2023-05-19T12:09:07;69.98;50.00
74420;DHT22;62855;50.718;-2.460;2023-05-19T12:11:07;69.98;49.00
74420;DHT22;62855;50.718;-2.460;2023-05-19T12:13:07;69.80;48.00
74420;DHT22;62855;50.718;-2.460;2023-05-19T12:18:06;69.62;50.00
74420;DHT22;62855;50.718;-2.460;2023-05-19T12:21:06;69.98;50.00
74420;DHT22;62855;50.718;-2.460;2023-05-19T12:26:06;69.80;48.00
74420;DHT22;62855;50.718;-2.460;2023-05-19T12:28:06;69.44;48.00
74420;DHT22;62855;50.718;-2.460;2023-05-19T12:31:06;68.90;47.00
74420;DHT22;62855;50.718;-2.460;2023-05-19T12:34:06;68.72;48.00
74420;DHT22;62855;50.718;-2.460;2023-05-19T12:37:06;68.72;49.00
74420;DHT22;62855;50.718;-2.460;2023-05-19T12:39:06;68.54;48.00
74420;DHT22;62855;50.718;-2.460;2023-05-19T12:42:07;68.72;50.00
74420;DHT22;62855;50.718;-2.460;2023-05-19T12:44:13;69.26;50.00
74420;DHT22;62855;50.718;-2.460;2023-05-19T12:46:10;69.80;50.00
74420;DHT22;62855;50.718;-2.460;2023-05-19T12:49:06;70.52;50.00
74420;DHT22;62855;50.718;-2.460;2023-05-19T12:52:06;70.52;48.00
74420;DHT22;62855;50.718;-2.460;2023-05-19T12:55:08;70.52;47.00
74420;DHT22;62855;50.718;-2.460;2023-05-19T12:57:09;70.34;48.00
74420;DHT22;62855;50.718;-2.460;2023-05-19T13:00:13;69.98;48.00
74420;DHT22;62855;50.718;-2.460;2023-05-19T13:03:07;69.44;48.00
74420;DHT22;62855;50.718;-2.460;2023-05-19T13:06:06;68.90;49.00
74420;DHT22;62855;50.718;-2.460;2023-05-19T13:08:07;68.72;50.00
74420;DHT22;62855;50.718;-2.460;2023-05-19T13:10:07;68.36;50.00
74420;DHT22;62855;50.718;-2.460;2023-05-19T13:13:07;67.10;50.00
74420;DHT22;62855;50.718;-2.460;2023-05-19T13:16:06;65.66;51.00
74420;DHT22;62855;50.718;-2.460;2023-05-19T13:18:07;64.58;51.00
74420;DHT22;62855;50.718;-2.460;2023-05-19T13:20:07;64.04;52.00
74420;DHT22;62855;50.718;-2.460;2023-05-19T13:23:08;63.50;53.00
74420;DHT22;62855;50.718;-2.460;2023-05-19T13:25:07;62.96;54.00
74420;DHT22;62855;50.718;-2.460;2023-05-19T13:27:05;62.78;55.00
74420;DHT22;62855;50.718;-2.460;2023-05-19T13:29:07;62.60;55.00
74420;DHT22;62855;50.718;-2.460;2023-05-19T13:31:07;62.60;56.00
74420;DHT22;62855;50.718;-2.460;2023-05-19T13:33:06;62.06;60.00
74420;DHT22;62855;50.718;-2.460;2023-05-19T13:36:06;61.70;60.00
74420;DHT22;62855;50.718;-2.460;2023-05-19T13:37:17;61.70;61.00
74420;DHT22;62855;50.718;-2.460;2023-05-19T13:42:18;61.34;61.00
74420;DHT22;62855;50.718;-2.460;2023-05-19T13:49:06;60.80;61.00
74420;DHT22;62855;50.718;-2.460;2023-05-19T13:52:06;60.80;62.00
74420;DHT22;62855;50.718;-2.460;2023-05-19T13:55:07;60.80;63.00
74420;DHT22;62855;50.718;-2.460;2023-05-19T13:58:06;60.62;63.00
74420;DHT22;62855;50.718;-2.460;2023-05-19T14:01:06;60.26;63.00
74420;DHT22;62855;50.718;-2.460;2023-05-19T14:07:07;60.80;65.00
74420;DHT22;62855;50.718;-2.460;2023-05-19T14:10:07;61.16;66.00
74420;DHT22;62855;50.718;-2.460;2023-05-19T14:13:06;61.70;65.00
74420;DHT22;62855;50.718;-2.460;2023-05-19T14:16:07;62.06;65.00
74420;DHT22;62855;50.718;-2.460;2023-05-19T14:18:06;62.06;65.00
74420;DHT22;62855;50.718;-2.460;2023-05-19T14:22:06;61.88;64.00
74420;DHT22;62855;50.718;-2.460;2023-05-19T14:25:07;61.88;64.00
74420;DHT22;62855;50.718;-2.460;2023-05-19T14:28:06;61.70;65.00
74420;DHT22;62855;50.718;-2.460;2023-05-19T14:34:06;61.70;65.00
74420;DHT22;62855;50.718;-2.460;2023-05-19T14:37:06;61.52;65.00
74420;DHT22;62855;50.718;-2.460;2023-05-19T14:39:06;61.34;64.00
74420;DHT22;62855;50.718;-2.460;2023-05-19T14:41:06;60.98;64.00
74420;DHT22;62855;50.718;-2.460;2023-05-19T14:45:07;60.80;65.00
74420;DHT22;62855;50.718;-2.460;2023-05-19T14:47:06;60.62;65.00
74420;DHT22;62855;50.718;-2.460;2023-05-19T14:50:07;60.44;64.00
74420;DHT22;62855;50.718;-2.460;2023-05-19T14:52:06;60.08;64.00
74420;DHT22;62855;50.718;-2.460;2023-05-19T14:54:06;60.08;64.00
74420;DHT22;62855;50.718;-2.460;2023-05-19T14:57:06;59.90;64.00
74420;DHT22;62855;50.718;-2.460;2023-05-19T15:00:07;59.00;65.00
74420;DHT22;62855;50.718;-2.460;2023-05-19T15:03:06;58.10;66.00
74420;DHT22;62855;50.718;-2.460;2023-05-19T15:09:06;56.84;70.00
74420;DHT22;62855;50.718;-2.460;2023-05-19T15:12:06;56.48;71.00
74420;DHT22;62855;50.718;-2.460;2023-05-19T15:15:07;55.94;72.00
74420;DHT22;62855;50.718;-2.460;2023-05-19T15:17:06;55.94;72.00
74420;DHT22;62855;50.718;-2.460;2023-05-19T15:20:07;55.40;73.00
74420;DHT22;62855;50.718;-2.460;2023-05-19T15:23:06;55.04;74.00
74420;DHT22;62855;50.718;-2.460;2023-05-19T15:26:06;55.04;75.00
74420;DHT22;62855;50.718;-2.460;2023-05-19T15:29:06;55.04;75.00
74420;DHT22;62855;50.718;-2.460;2023-05-19T15:32:07;54.86;76.00
74420;DHT22;62855;50.718;-2.460;2023-05-19T15:35:07;54.86;76.00
74420;DHT22;62855;50.718;-2.460;2023-05-19T15:38:06;54.86;77.00
74420;DHT22;62855;50.718;-2.460;2023-05-19T15:41:07;54.68;77.00
74420;DHT22;62855;50.718;-2.460;2023-05-19T15:44:06;54.68;77.00
74420;DHT22;62855;50.718;-2.460;2023-05-19T15:53:06;54.68;78.00
74420;DHT22;62855;50.718;-2.460;2023-05-19T15:56:06;54.86;79.00
74420;DHT22;62855;50.718;-2.460;2023-05-19T15:59:06;54.86;79.00
74420;DHT22;62855;50.718;-2.460;2023-05-19T16:02:07;54.86;79.00
74420;DHT22;62855;50.718;-2.460;2023-05-19T16:04:06;54.86;80.00
74420;DHT22;62855;50.718;-2.460;2023-05-19T16:07:06;55.22;80.00
74420;DHT22;62855;50.718;-2.460;2023-05-19T16:10:07;55.40;80.00
74420;DHT22;62855;50.718;-2.460;2023-05-19T16:13:06;55.40;80.00
74420;DHT22;62855;50.718;-2.460;2023-05-19T16:16:06;55.22;80.00
74420;DHT22;62855;50.718;-2.460;2023-05-19T16:19:07;55.22;80.00
74420;DHT22;62855;50.718;-2.460;2023-05-19T16:22:05;55.22;80.00
74420;DHT22;62855;50.718;-2.460;2023-05-19T16:28:06;54.86;80.00
74420;DHT22;62855;50.718;-2.460;2023-05-19T16:30:07;54.68;80.00
74420;DHT22;62855;50.718;-2.460;2023-05-19T16:32:06;54.68;80.00
74420;DHT22;62855;50.718;-2.460;2023-05-19T16:35:07;54.68;80.00
74420;DHT22;62855;50.718;-2.460;2023-05-19T16:38:06;54.68;80.00
74420;DHT22;62855;50.718;-2.460;2023-05-19T16:41:10;54.86;80.00
74420;DHT22;62855;50.718;-2.460;2023-05-19T16:43:06;54.86;80.00
74420;DHT22;62855;50.718;-2.460;2023-05-19T16:46:06;54.68;80.00
74420;DHT22;62855;50.718;-2.460;2023-05-19T16:49:06;54.68;80.00
74420;DHT22;62855;50.718;-2.460;2023-05-19T16:52:06;54.68;81.00
74420;DHT22;62855;50.718;-2.460;2023-05-19T16:55:07;54.68;81.00
74420;DHT22;62855;50.718;-2.460;2023-05-19T16:58:06;54.68;81.00
74420;DHT22;62855;50.718;-2.460;2023-05-19T17:01:06;54.68;81.00
74420;DHT22;62855;50.718;-2.460;2023-05-19T17:04:06;54.50;81.00
74420;DHT22;62855;50.718;-2.460;2023-05-19T17:07:06;54.32;81.00
74420;DHT22;62855;50.718;-2.460;2023-05-19T17:10:07;54.32;81.00
74420;DHT22;62855;50.718;-2.460;2023-05-19T17:13:05;54.50;81.00
74420;DHT22;62855;50.718;-2.460;2023-05-19T17:15:07;54.50;81.00
74420;DHT22;62855;50.718;-2.460;2023-05-19T17:18:06;54.68;81.00
74420;DHT22;62855;50.718;-2.460;2023-05-19T17:21:06;54.68;81.00
74420;DHT22;62855;50.718;-2.460;2023-05-19T17:24:06;54.68;81.00
74420;DHT22;62855;50.718;-2.460;2023-05-19T17:26:05;54.68;81.00
74420;DHT22;62855;50.718;-2.460;2023-05-19T17:29:06;54.68;81.00
74420;DHT22;62855;50.718;-2.460;2023-05-19T17:32:06;54.68;81.00
74420;DHT22;62855;50.718;-2.460;2023-05-19T17:35:06;54.86;81.00
74420;DHT22;62855;50.718;-2.460;2023-05-19T17:38:06;55.04;81.00
74420;DHT22;62855;50.718;-2.460;2023-05-19T17:41:06;55.04;81.00
74420;DHT22;62855;50.718;-2.460;2023-05-19T17:43:06;55.04;82.00
74420;DHT22;62855;50.718;-2.460;2023-05-19T17:46:06;55.22;82.00
74420;DHT22;62855;50.718;-2.460;2023-05-19T17:48:06;55.22;82.00
74420;DHT22;62855;50.718;-2.460;2023-05-19T17:51:06;55.22;82.00
74420;DHT22;62855;50.718;-2.460;2023-05-19T17:54:07;55.40;82.00
74420;DHT22;62855;50.718;-2.460;2023-05-19T17:56:08;55.40;82.00
74420;DHT22;62855;50.718;-2.460;2023-05-19T17:58:07;55.58;82.00
74420;DHT22;62855;50.718;-2.460;2023-05-19T18:00:07;55.58;82.00
74420;DHT22;62855;50.718;-2.460;2023-05-19T18:02:07;55.76;82.00
74420;DHT22;62855;50.718;-2.460;2023-05-19T18:05:07;55.94;82.00
74420;DHT22;62855;50.718;-2.460;2023-05-19T18:07:08;56.12;82.00
74420;DHT22;62855;50.718;-2.460;2023-05-19T18:09:06;56.30;83.00
74420;DHT22;62855;50.718;-2.460;2023-05-19T18:11:18;56.48;83.00
74420;DHT22;62855;50.718;-2.460;2023-05-19T18:17:06;56.84;83.00
74420;DHT22;62855;50.718;-2.460;2023-05-19T18:20:07;56.66;83.00
74420;DHT22;62855;50.718;-2.460;2023-05-19T18:23:06;56.30;83.00
74420;DHT22;62855;50.718;-2.460;2023-05-19T18:26:06;56.30;83.00
74420;DHT22;62855;50.718;-2.460;2023-05-19T18:29:07;56.30;83.00
74420;DHT22;62855;50.718;-2.460;2023-05-19T18:34:06;56.30;83.00
74420;DHT22;62855;50.718;-2.460;2023-05-19T18:37:06;56.30;83.00
74420;DHT22;62855;50.718;-2.460;2023-05-19T18:40:18;56.12;83.00
74420;DHT22;62855;50.718;-2.460;2023-05-19T18:46:06;55.76;83.00
74420;DHT22;62855;50.718;-2.460;2023-05-19T18:49:06;55.76;82.00
74420;DHT22;62855;50.718;-2.460;2023-05-19T18:52:07;55.76;82.00
74420;DHT22;62855;50.718;-2.460;2023-05-19T18:54:06;55.76;82.00
74420;DHT22;62855;50.718;-2.460;2023-05-19T18:56:10;55.76;82.00
74420;DHT22;62855;50.718;-2.460;2023-05-19T18:57:17;55.76;82.00